Time;durP1;ratioP1;P1;durP2;ratioP2;P2;SDS_P1;SDS_P2;PMS_P1;PMS_P2;Temp;Humidity;BMP_temperature;BMP_pressure;BME280_temperature;BME280_humidity;BME280_pressure;Samples;Min_cycle;Max_cycle;Signal;HPM_P1;HPM_P2
2023/05/06 00:00:38;;;;;;;1.67;1.50;;;18.50;57.70;;;;;;5112940;28;20738;-63
2023/05/06 00:03:03;;;;;;;1.98;1.70;;;18.50;57.80;;;;;;5113404;28;20179;-64
2023/05/06 00:05:29;;;;;;;1.40;1.30;;;18.50;57.80;;;;;;5112855;28;20259;-64
2023/05/06 00:07:54;;;;;;;1.77;1.65;;;18.50;57.80;;;;;;5112255;28;20285;-63
2023/05/06 00:10:20;;;;;;;1.55;1.45;;;18.50;57.70;;;;;;5112999;28;20249;-63
2023/05/06 00:12:45;;;;;;;1.73;1.30;;;18.50;57.80;;;;;;5113120;28;20180;-63
2023/05/06 00:15:11;;;;;;;1.70;1.60;;;18.50;57.80;;;;;;5112205;28;20180;-63
2023/05/06 00:17:36;;;;;;;1.60;1.50;;;18.50;57.80;;;;;;5112847;28;20174;-63
2023/05/06 00:20:02;;;;;;;1.48;1.35;;;18.50;57.80;;;;;;5112664;28;20714;-63
2023/05/06 00:22:28;;;;;;;1.88;1.70;;;18.40;57.70;;;;;;5111776;28;20216;-63
2023/05/06 00:24:54;;;;;;;1.50;1.40;;;18.50;57.80;;;;;;5113208;28;20169;-62
2023/05/06 00:27:19;;;;;;;1.70;1.60;;;18.50;57.80;;;;;;5112772;28;20205;-63
2023/05/06 00:29:44;;;;;;;1.63;1.52;;;18.50;57.70;;;;;;5112289;28;20175;-64
2023/05/06 00:32:10;;;;;;;1.75;1.65;;;18.50;57.70;;;;;;5112697;28;20238;-65
2023/05/06 00:34:36;;;;;;;1.70;1.60;;;18.50;57.80;;;;;;5112573;28;20552;-65
2023/05/06 00:37:02;;;;;;;1.80;1.70;;;18.40;57.70;;;;;;5111958;28;20184;-63
2023/05/06 00:39:28;;;;;;;1.67;1.50;;;18.40;57.60;;;;;;5112481;28;20631;-64
2023/05/06 00:41:58;;;;;;;1.75;1.65;;;18.40;57.60;;;;;;5112815;28;20569;-63
2023/05/06 00:44:24;;;;;;;1.70;1.60;;;18.40;57.60;;;;;;5111695;28;20173;-63
2023/05/06 00:46:49;;;;;;;1.70;1.60;;;18.40;57.70;;;;;;5113033;28;20184;-63
2023/05/06 00:49:15;;;;;;;1.60;1.50;;;18.70;57.80;;;;;;5094441;28;20252;-63
2023/05/06 00:51:40;;;;;;;1.58;1.48;;;18.40;57.70;;;;;;5111968;28;20180;-63
2023/05/06 00:54:06;;;;;;;1.90;1.80;;;18.40;57.60;;;;;;5112635;28;20169;-63
2023/05/06 00:56:31;;;;;;;2.10;1.90;;;18.40;57.60;;;;;;5112848;28;20177;-63
2023/05/06 00:58:57;;;;;;;1.50;1.40;;;18.40;57.60;;;;;;5111929;28;20162;-64
2023/05/06 01:01:23;;;;;;;1.92;1.55;;;18.50;57.60;;;;;;5111202;28;20209;-63
2023/05/06 01:03:48;;;;;;;1.83;1.73;;;18.40;57.60;;;;;;5111604;28;20541;-64
2023/05/06 01:06:29;;;;;;;2.20;1.90;;;18.40;57.60;;;;;;5111600;28;20667;-64
2023/05/06 01:09:15;;;;;;;2.00;1.65;;;18.40;57.60;;;;;;5111538;28;20203;-63
2023/05/06 01:12:13;;;;;;;1.98;1.75;;;18.40;57.60;;;;;;5110952;28;20181;-63
2023/05/06 01:15:08;;;;;;;1.70;1.60;;;18.40;57.60;;;;;;5099983;28;20189;-62
2023/05/06 01:17:35;;;;;;;1.83;1.73;;;18.40;57.60;;;;;;5112645;28;20208;-63
2023/05/06 01:20:01;;;;;;;2.00;1.83;;;18.40;57.60;;;;;;5111465;28;20324;-63
2023/05/06 01:22:27;;;;;;;1.85;1.67;;;18.40;57.60;;;;;;5112053;28;20235;-62
2023/05/06 01:24:53;;;;;;;2.00;1.50;;;18.40;57.60;;;;;;5111179;28;20204;-62
2023/05/06 01:27:19;;;;;;;1.70;1.60;;;18.40;57.60;;;;;;5111576;28;20266;-63
2023/05/06 01:29:45;;;;;;;1.73;1.63;;;18.40;57.60;;;;;;5115831;28;20177;-64
2023/05/06 01:32:28;;;;;;;1.70;1.60;;;18.30;57.60;;;;;;5115249;28;20169;-64
2023/05/06 01:35:10;;;;;;;1.77;1.67;;;18.40;57.60;;;;;;5116062;28;20180;-64
2023/05/06 01:38:14;;;;;;;1.30;1.20;;;18.30;57.60;;;;;;5116202;28;20248;-64
2023/05/06 01:40:40;;;;;;;1.42;1.33;;;18.40;57.60;;;;;;5106226;28;20220;-64
2023/05/06 01:43:05;;;;;;;1.52;1.42;;;18.30;57.60;;;;;;5097757;28;20188;-63
2023/05/06 01:45:32;;;;;;;1.50;1.40;;;18.30;57.60;;;;;;5114883;28;20543;-63
2023/05/06 01:47:58;;;;;;;1.38;1.27;;;18.30;57.60;;;;;;5096981;28;20180;-63
2023/05/06 01:50:24;;;;;;;1.40;1.30;;;18.30;57.60;;;;;;5115665;28;20173;-63
2023/05/06 01:52:59;;;;;;;1.80;1.70;;;18.30;57.60;;;;;;5097804;28;20169;-63
2023/05/06 01:55:25;;;;;;;1.80;1.70;;;18.30;57.60;;;;;;5114797;28;20260;-63
2023/05/06 01:57:50;;;;;;;1.90;1.63;;;18.30;57.60;;;;;;5115548;28;20671;-64
2023/05/06 02:00:16;;;;;;;1.67;1.58;;;18.30;57.60;;;;;;5114287;28;20195;-63
2023/05/06 02:02:42;;;;;;;1.50;1.40;;;18.30;57.60;;;;;;5115729;28;20716;-64
2023/05/06 02:05:07;;;;;;;2.22;1.75;;;18.30;57.50;;;;;;5115298;28;20543;-64
2023/05/06 02:07:33;;;;;;;1.70;1.60;;;18.30;57.60;;;;;;5114876;28;20943;-63
2023/05/06 02:09:58;;;;;;;1.80;1.70;;;18.30;57.60;;;;;;5115358;28;20206;-63
2023/05/06 02:12:24;;;;;;;1.60;1.50;;;18.30;57.60;;;;;;5115065;28;20558;-63
2023/05/06 02:14:49;;;;;;;1.52;1.42;;;18.30;57.60;;;;;;5114404;28;20196;-63
2023/05/06 02:17:15;;;;;;;1.60;1.50;;;18.30;57.60;;;;;;5115153;28;20172;-63
2023/05/06 02:19:40;;;;;;;1.58;1.48;;;18.30;57.60;;;;;;5115163;28;20169;-63
2023/05/06 02:22:06;;;;;;;1.70;1.60;;;18.30;57.60;;;;;;5114119;28;20299;-63
2023/05/06 02:24:31;;;;;;;1.60;1.50;;;18.30;57.60;;;;;;5115279;28;20263;-62
2023/05/06 02:26:57;;;;;;;1.50;1.40;;;18.30;57.60;;;;;;5115259;28;20271;-63
2023/05/06 02:29:22;;;;;;;1.63;1.52;;;18.30;57.60;;;;;;5113962;28;20256;-64
2023/05/06 02:31:48;;;;;;;1.50;1.40;;;18.30;57.60;;;;;;5114941;28;20169;-64
2023/05/06 02:34:15;;;;;;;1.60;1.50;;;18.30;57.60;;;;;;5114708;28;20225;-64
2023/05/06 02:36:40;;;;;;;1.73;1.63;;;18.30;57.60;;;;;;5114340;28;20200;-63
2023/05/06 02:39:06;;;;;;;1.60;1.50;;;18.30;57.60;;;;;;5114603;28;20628;-63
2023/05/06 02:41:31;;;;;;;1.60;1.42;;;18.20;57.50;;;;;;5114727;28;20205;-63
2023/05/06 02:43:57;;;;;;;1.60;1.50;;;18.30;57.60;;;;;;5114214;28;20173;-64
2023/05/06 02:46:22;;;;;;;1.63;1.52;;;18.30;57.60;;;;;;5114921;28;20177;-63
2023/05/06 02:48:48;;;;;;;1.67;1.58;;;18.20;57.60;;;;;;5114955;28;20169;-63
2023/05/06 02:51:13;;;;;;;1.50;1.40;;;18.20;57.60;;;;;;5113948;28;20173;-63
2023/05/06 02:53:39;;;;;;;1.67;1.58;;;18.20;57.60;;;;;;5114946;28;20275;-63
2023/05/06 02:56:04;;;;;;;2.88;1.42;;;18.20;57.60;;;;;;5114385;28;20510;-63
2023/05/06 02:58:30;;;;;;;1.45;1.35;;;18.20;57.60;;;;;;5113704;28;20177;-64
2023/05/06 03:00:55;;;;;;;1.52;1.42;;;18.20;57.60;;;;;;5114522;28;20695;-64
2023/05/06 03:03:21;;;;;;;1.85;1.40;;;18.20;57.60;;;;;;5114200;28;20310;-63
2023/05/06 03:05:47;;;;;;;1.60;1.50;;;18.20;57.60;;;;;;5113569;28;20509;-63
2023/05/06 03:08:12;;;;;;;2.10;1.90;;;18.10;57.60;;;;;;5113875;28;20184;-63
2023/05/06 03:10:38;;;;;;;1.70;1.58;;;18.20;57.60;;;;;;5113505;28;20173;-62
2023/05/06 03:13:03;;;;;;;2.17;1.85;;;18.20;57.70;;;;;;5113995;28;20173;-62
2023/05/06 03:15:29;;;;;;;2.10;1.45;;;18.20;57.70;;;;;;5114007;28;20260;-63
2023/05/06 03:17:54;;;;;;;1.88;1.65;;;18.20;57.70;;;;;;5113482;28;20654;-62
2023/05/06 03:20:20;;;;;;;1.98;1.88;;;18.20;57.70;;;;;;5113319;28;20311;-63
2023/05/06 03:22:46;;;;;;;1.92;1.80;;;18.20;57.70;;;;;;5114069;28;20173;-62
2023/05/06 03:25:11;;;;;;;1.60;1.50;;;18.20;57.70;;;;;;5112865;28;20180;-62
2023/05/06 03:27:37;;;;;;;1.58;1.48;;;18.10;57.70;;;;;;5113721;28;20166;-63
2023/05/06 03:30:03;;;;;;;1.50;1.40;;;18.20;57.70;;;;;;5113984;28;20169;-63
2023/05/06 03:32:29;;;;;;;1.40;1.30;;;18.10;57.60;;;;;;5112788;28;20205;-64
2023/05/06 03:34:55;;;;;;;1.52;1.42;;;18.10;57.60;;;;;;5113816;28;20181;-63
2023/05/06 03:37:20;;;;;;;1.67;1.58;;;18.10;57.70;;;;;;5113248;28;20226;-63
2023/05/06 03:39:46;;;;;;;1.65;1.55;;;18.10;57.70;;;;;;5112975;28;20177;-63
2023/05/06 03:42:11;;;;;;;1.85;1.30;;;18.10;57.60;;;;;;5113225;28;20214;-63
2023/05/06 03:44:37;;;;;;;1.52;1.42;;;18.10;57.60;;;;;;5112368;28;20172;-63
2023/05/06 03:47:02;;;;;;;1.60;1.50;;;18.10;57.70;;;;;;5112910;28;20256;-62
2023/05/06 03:49:28;;;;;;;1.40;1.30;;;18.10;57.70;;;;;;5113193;28;20628;-63
2023/05/06 03:51:53;;;;;;;1.40;1.30;;;18.10;57.70;;;;;;5113102;28;20181;-63
2023/05/06 03:54:19;;;;;;;1.30;1.20;;;18.10;57.70;;;;;;5111179;28;20177;-63
2023/05/06 03:56:44;;;;;;;1.30;1.20;;;18.10;57.70;;;;;;5113320;28;20173;-63
2023/05/06 03:59:10;;;;;;;1.77;1.67;;;18.10;58.30;;;;;;5113329;28;20177;-63
2023/05/06 04:01:35;;;;;;;1.30;1.20;;;18.10;57.60;;;;;;5112734;28;20211;-63
2023/05/06 04:04:01;;;;;;;1.50;1.40;;;18.10;57.60;;;;;;5113393;28;20176;-63
2023/05/06 04:06:26;;;;;;;1.13;1.13;;;18.10;57.60;;;;;;5112994;28;20196;-63
2023/05/06 04:08:52;;;;;;;1.38;1.27;;;18.00;57.60;;;;;;5112456;28;20542;-62
2023/05/06 04:11:17;;;;;;;1.30;1.20;;;18.10;57.60;;;;;;5112775;28;20620;-62
2023/05/06 04:13:43;;;;;;;1.33;1.23;;;18.10;57.60;;;;;;5113005;28;20181;-63
2023/05/06 04:16:08;;;;;;;1.17;1.17;;;18.10;57.60;;;;;;5112088;28;20177;-62
2023/05/06 04:18:34;;;;;;;1.40;1.30;;;18.10;57.60;;;;;;5113196;28;20177;-63
2023/05/06 04:21:00;;;;;;;1.42;1.33;;;18.00;57.60;;;;;;5112303;28;20228;-62
2023/05/06 04:23:28;;;;;;;1.15;1.10;;;18.00;57.50;;;;;;5112791;28;20604;-61
2023/05/06 04:25:54;;;;;;;1.17;1.17;;;18.00;58.20;;;;;;5112932;28;20184;-62
2023/05/06 04:28:20;;;;;;;1.52;1.42;;;18.00;57.50;;;;;;5111857;28;20169;-63
2023/05/06 04:30:46;;;;;;;1.23;1.20;;;18.00;57.50;;;;;;5112895;28;20257;-66
2023/05/06 04:33:11;;;;;;;1.35;1.30;;;18.00;57.50;;;;;;5112497;28;20315;-64
2023/05/06 04:35:38;;;;;;;1.55;1.23;;;18.10;57.50;;;;;;5112376;28;20212;-63
2023/05/06 04:38:04;;;;;;;1.60;1.50;;;18.00;57.40;;;;;;5112805;28;20672;-63
2023/05/06 04:40:30;;;;;;;1.77;1.65;;;18.00;57.40;;;;;;5112828;28;20188;-63
2023/05/06 04:42:56;;;;;;;1.50;1.40;;;18.00;57.50;;;;;;5112081;28;20543;-63
2023/05/06 04:45:23;;;;;;;1.80;1.70;;;18.00;57.40;;;;;;5112676;28;20165;-63
2023/05/06 04:47:48;;;;;;;1.50;1.40;;;18.10;57.50;;;;;;5112763;28;20181;-63
2023/05/06 04:50:14;;;;;;;1.50;1.40;;;18.10;57.50;;;;;;5111819;28;20173;-63
2023/05/06 04:52:40;;;;;;;2.10;1.48;;;18.00;57.40;;;;;;5112656;28;20209;-62
2023/05/06 04:55:05;;;;;;;1.88;1.50;;;18.00;57.40;;;;;;5112336;28;20197;-62
2023/05/06 04:57:31;;;;;;;1.70;1.60;;;18.00;57.40;;;;;;5111893;28;20173;-64
2023/05/06 04:59:57;;;;;;;1.73;1.55;;;18.00;57.40;;;;;;5112774;28;20169;-63
2023/05/06 05:02:22;;;;;;;1.77;1.67;;;18.00;57.40;;;;;;5112127;28;20216;-63
2023/05/06 05:04:48;;;;;;;1.80;1.70;;;18.00;57.40;;;;;;5115870;28;20177;-63
2023/05/06 05:07:13;;;;;;;1.73;1.63;;;18.10;57.50;;;;;;5116470;28;20610;-63
2023/05/06 05:09:39;;;;;;;2.03;1.73;;;18.00;57.40;;;;;;5116562;28;20176;-63
2023/05/06 05:12:04;;;;;;;1.80;1.70;;;18.00;57.40;;;;;;5115487;28;20260;-62
2023/05/06 05:14:30;;;;;;;1.23;1.15;;;18.00;57.40;;;;;;5116921;27;20212;-62
2023/05/06 05:16:55;;;;;;;1.65;1.55;;;18.00;57.40;;;;;;5116480;28;20173;-62
2023/05/06 05:19:21;;;;;;;1.60;1.50;;;18.00;57.40;;;;;;5115508;28;20187;-62
2023/05/06 05:21:47;;;;;;;1.60;1.50;;;18.10;57.40;;;;;;5116041;28;20733;-62
2023/05/06 05:24:12;;;;;;;1.73;1.63;;;18.10;57.50;;;;;;5115330;28;20226;-62
2023/05/06 05:26:38;;;;;;;1.65;1.50;;;18.10;57.40;;;;;;5116432;28;20173;-62
2023/05/06 05:29:03;;;;;;;1.65;1.55;;;18.10;57.40;;;;;;5116135;28;20173;-62
2023/05/06 05:31:30;;;;;;;1.70;1.50;;;18.00;57.40;;;;;;5115068;28;20296;-64
2023/05/06 05:33:55;;;;;;;1.75;1.65;;;18.10;57.40;;;;;;5116273;28;20177;-64
2023/05/06 05:36:22;;;;;;;1.52;1.42;;;18.10;57.40;;;;;;5115805;28;20579;-63
2023/05/06 05:38:47;;;;;;;1.55;1.45;;;18.10;57.40;;;;;;5115538;28;20197;-63
2023/05/06 05:41:13;;;;;;;1.58;1.48;;;18.20;57.40;;;;;;5115718;28;20627;-62
2023/05/06 05:43:38;;;;;;;1.73;1.63;;;18.10;57.40;;;;;;5116134;28;20184;-63
2023/05/06 05:46:04;;;;;;;1.83;1.70;;;18.00;57.30;;;;;;5115462;28;20222;-62
2023/05/06 05:48:31;;;;;;;1.67;1.58;;;18.30;57.50;;;;;;5116000;28;20222;-63
2023/05/06 05:50:57;;;;;;;1.42;1.33;;;18.10;57.40;;;;;;5115857;28;20181;-62
2023/05/06 05:53:22;;;;;;;1.63;1.52;;;18.10;57.40;;;;;;5114920;28;20184;-62
2023/05/06 05:55:48;;;;;;;1.50;1.40;;;18.10;57.40;;;;;;5115823;28;20165;-63
2023/05/06 05:58:13;;;;;;;1.45;1.35;;;18.10;57.40;;;;;;5115990;28;20271;-64
2023/05/06 06:00:39;;;;;;;1.80;1.70;;;18.10;57.40;;;;;;5115378;28;20410;-64
2023/05/06 06:03:05;;;;;;;1.60;1.50;;;18.10;57.40;;;;;;5115388;28;20662;-63
2023/05/06 06:05:33;;;;;;;1.63;1.52;;;18.10;57.40;;;;;;5115740;28;20187;-63
2023/05/06 06:07:59;;;;;;;1.70;1.60;;;18.10;57.40;;;;;;5114881;28;20176;-62
2023/05/06 06:10:24;;;;;;;1.40;1.30;;;18.10;57.40;;;;;;5115278;28;20177;-62
2023/05/06 06:12:50;;;;;;;2.38;1.90;;;18.20;57.50;;;;;;5115412;28;20180;-62
2023/05/06 06:15:15;;;;;;;1.83;1.48;;;18.20;57.50;;;;;;5113789;28;20569;-60
2023/05/06 06:17:42;;;;;;;2.30;2.03;;;18.20;57.50;;;;;;5115280;28;20180;-59
2023/05/06 06:20:08;;;;;;;1.98;1.50;;;18.20;57.50;;;;;;5113430;28;20169;-61
2023/05/06 06:22:33;;;;;;;2.05;1.73;;;18.20;57.50;;;;;;5114409;28;20243;-60
2023/05/06 06:24:59;;;;;;;1.88;1.73;;;18.20;57.50;;;;;;5114981;28;20662;-61
2023/05/06 06:27:25;;;;;;;1.70;1.60;;;18.20;57.60;;;;;;5114848;28;20263;-61
2023/05/06 06:29:50;;;;;;;1.88;1.73;;;18.30;57.70;;;;;;5114277;28;20201;-61
2023/05/06 06:32:16;;;;;;;2.55;1.88;;;18.20;57.60;;;;;;5114717;28;20173;-63
2023/05/06 06:34:41;;;;;;;1.80;1.70;;;18.30;57.60;;;;;;5113605;28;20188;-63
2023/05/06 06:37:08;;;;;;;2.97;2.17;;;18.30;57.60;;;;;;5114427;28;20631;-62
2023/05/06 06:39:34;;;;;;;2.20;2.08;;;18.30;57.60;;;;;;5114727;28;20196;-62
2023/05/06 06:42:03;;;;;;;4.35;2.13;;;18.30;57.60;;;;;;5113862;28;20251;-61
2023/05/06 06:44:29;;;;;;;3.92;1.90;;;18.40;57.90;;;;;;5114597;28;20505;-61
2023/05/06 06:46:54;;;;;;;2.33;2.00;;;18.40;58.60;;;;;;5114883;28;20260;-60
2023/05/06 06:49:20;;;;;;;1.77;1.67;;;18.40;57.90;;;;;;5113621;28;20260;-60
2023/05/06 06:51:45;;;;;;;2.13;1.90;;;18.40;58.00;;;;;;5114515;28;20173;-61
2023/05/06 06:54:11;;;;;;;4.90;2.08;;;18.50;58.00;;;;;;5114207;28;20180;-60
2023/05/06 06:56:36;;;;;;;2.17;2.08;;;18.40;58.00;;;;;;5113952;28;20185;-61
2023/05/06 06:59:02;;;;;;;2.30;1.70;;;18.50;58.00;;;;;;5114481;28;20169;-61
2023/05/06 07:01:30;;;;;;;2.08;1.83;;;18.50;58.10;;;;;;5114150;28;20227;-61
2023/05/06 07:03:55;;;;;;;2.00;1.90;;;18.50;58.10;;;;;;5113636;28;20188;-61
2023/05/06 07:06:21;;;;;;;2.20;1.90;;;18.50;58.10;;;;;;5114011;28;20192;-64
2023/05/06 07:08:47;;;;;;;6.68;2.40;;;18.50;58.20;;;;;;5114215;28;20638;-64
2023/05/06 07:11:13;;;;;;;4.93;2.25;;;18.50;58.30;;;;;;5113469;28;20184;-64
2023/05/06 07:13:39;;;;;;;3.63;2.20;;;18.50;58.10;;;;;;5113605;28;20432;-64
2023/05/06 07:16:04;;;;;;;3.65;2.72;;;18.40;58.00;;;;;;5114457;28;20200;-64
2023/05/06 07:18:30;;;;;;;4.35;2.35;;;18.50;57.90;;;;;;5113619;28;20639;-62
2023/05/06 07:20:55;;;;;;;3.08;2.15;;;18.50;58.00;;;;;;5114003;28;20324;-63
2023/05/06 07:23:21;;;;;;;2.85;1.83;;;18.50;57.90;;;;;;5114214;28;20563;-63
2023/05/06 07:25:47;;;;;;;5.25;2.22;;;18.50;57.90;;;;;;5113026;28;20222;-63
2023/05/06 07:28:12;;;;;;;4.07;2.50;;;18.50;57.90;;;;;;5114116;28;20177;-64
2023/05/06 07:30:38;;;;;;;3.45;2.35;;;18.50;57.90;;;;;;5114225;28;20687;-65
2023/05/06 07:33:03;;;;;;;5.60;2.50;;;18.50;58.50;;;;;;5113377;28;20169;-64
2023/05/06 07:35:29;;;;;;;3.42;2.05;;;18.50;57.90;;;;;;5113842;28;20161;-65
2023/05/06 07:37:54;;;;;;;3.63;2.42;;;18.50;58.10;;;;;;5113106;28;20306;-64
2023/05/06 07:40:20;;;;;;;2.38;2.13;;;18.50;58.10;;;;;;5113611;28;20229;-66
2023/05/06 07:42:45;;;;;;;3.80;1.90;;;18.50;58.30;;;;;;5113607;28;20223;-65
2023/05/06 07:45:11;;;;;;;2.20;1.95;;;18.60;58.10;;;;;;5112572;28;20180;-64
2023/05/06 07:47:37;;;;;;;3.45;2.20;;;18.60;58.10;;;;;;5113891;28;20180;-64
2023/05/06 07:50:03;;;;;;;5.50;2.40;;;18.60;58.10;;;;;;5113763;28;20209;-62
2023/05/06 07:52:29;;;;;;;2.90;2.35;;;18.60;58.10;;;;;;5112603;28;20208;-64
2023/05/06 07:54:55;;;;;;;3.92;3.05;;;18.60;58.10;;;;;;5113902;28;20220;-64
2023/05/06 07:57:20;;;;;;;3.55;3.25;;;18.50;58.30;;;;;;5113295;28;20650;-66
2023/05/06 07:59:46;;;;;;;4.70;3.45;;;18.50;58.30;;;;;;5113085;28;20184;-65
2023/05/06 08:02:12;;;;;;;3.58;3.25;;;18.50;58.40;;;;;;5113271;28;20216;-65
2023/05/06 08:04:37;;;;;;;4.53;3.70;;;18.50;58.50;;;;;;5113763;28;20177;-66
2023/05/06 08:07:03;;;;;;;3.88;2.90;;;18.60;58.60;;;;;;5113179;28;20176;-65
2023/05/06 08:09:28;;;;;;;4.38;3.00;;;18.60;58.50;;;;;;5113486;28;20204;-66
2023/05/06 08:11:54;;;;;;;3.70;3.33;;;18.60;58.50;;;;;;5113585;28;20263;-63
2023/05/06 08:14:19;;;;;;;3.00;2.70;;;18.60;58.40;;;;;;5112566;28;20173;-65
2023/05/06 08:16:45;;;;;;;3.05;2.60;;;18.60;58.40;;;;;;5113429;28;20203;-64
2023/05/06 08:19:10;;;;;;;3.25;2.63;;;18.60;58.30;;;;;;5112163;28;20176;-64
2023/05/06 08:21:36;;;;;;;3.55;3.20;;;18.60;58.30;;;;;;5112400;28;20225;-65
2023/05/06 08:24:01;;;;;;;4.47;2.60;;;18.70;58.40;;;;;;5113351;28;20540;-64
2023/05/06 08:26:27;;;;;;;2.90;2.60;;;18.70;58.40;;;;;;5112940;28;20666;-65
2023/05/06 08:28:55;;;;;;;3.85;2.67;;;18.70;58.40;;;;;;5112639;28;20169;-65
2023/05/06 08:31:20;;;;;;;4.20;2.20;;;18.70;58.40;;;;;;5113043;28;20177;-66
2023/05/06 08:33:46;;;;;;;2.85;2.50;;;18.70;58.40;;;;;;5113226;28;20209;-67
2023/05/06 08:36:11;;;;;;;5.60;2.70;;;18.70;58.40;;;;;;5112184;28;20225;-66
2023/05/06 08:38:37;;;;;;;2.55;2.35;;;18.70;58.40;;;;;;5116967;28;20542;-66
2023/05/06 08:41:07;;;;;;;3.00;2.67;;;18.70;58.40;;;;;;5117347;28;20204;-65
2023/05/06 08:43:33;;;;;;;2.28;2.08;;;18.70;58.40;;;;;;5117579;28;20181;-66
2023/05/06 08:45:59;;;;;;;3.55;2.42;;;18.70;58.40;;;;;;5116313;28;20170;-65
2023/05/06 08:48:25;;;;;;;4.20;2.35;;;18.80;58.40;;;;;;5116476;28;20449;-64
2023/05/06 08:50:50;;;;;;;2.17;1.98;;;18.70;58.40;;;;;;5117314;28;20181;-64
2023/05/06 08:53:16;;;;;;;2.47;2.28;;;18.80;58.30;;;;;;5098904;28;20199;-65
2023/05/06 08:55:42;;;;;;;2.22;2.05;;;18.80;58.20;;;;;;5115332;28;20168;-65
2023/05/06 08:58:07;;;;;;;2.58;2.38;;;18.90;58.20;;;;;;5116880;28;20581;-65
2023/05/06 09:00:33;;;;;;;2.05;1.95;;;18.90;58.10;;;;;;5115800;28;20538;-65
2023/05/06 09:03:00;;;;;;;2.03;1.92;;;18.90;58.20;;;;;;5115221;28;20184;-66
2023/05/06 09:05:26;;;;;;;2.55;2.35;;;18.90;58.10;;;;;;5116831;28;20173;-65
2023/05/06 09:07:51;;;;;;;3.00;2.65;;;18.90;58.10;;;;;;5117188;28;20200;-65
2023/05/06 09:10:17;;;;;;;2.47;2.28;;;18.90;58.10;;;;;;5116084;28;20242;-64
2023/05/06 09:12:43;;;;;;;2.67;2.30;;;19.00;58.10;;;;;;5116967;28;20195;-64
2023/05/06 09:15:10;;;;;;;2.35;1.98;;;19.00;58.20;;;;;;5116611;28;20209;-64
2023/05/06 09:17:35;;;;;;;2.25;2.15;;;19.00;58.10;;;;;;5116102;28;20169;-64
2023/05/06 09:20:01;;;;;;;2.25;2.00;;;19.00;58.10;;;;;;5116429;28;20173;-64
2023/05/06 09:22:28;;;;;;;2.10;2.00;;;19.00;58.10;;;;;;5116739;28;20213;-65
2023/05/06 09:24:56;;;;;;;1.98;1.88;;;19.00;58.00;;;;;;5116144;28;20169;-64
2023/05/06 09:27:30;;;;;;;2.20;1.67;;;19.00;58.00;;;;;;5116331;28;20624;-65
2023/05/06 09:30:00;;;;;;;2.33;2.13;;;19.00;58.10;;;;;;5116561;28;20173;-65
2023/05/06 09:32:25;;;;;;;2.17;1.98;;;19.10;58.10;;;;;;5115477;28;20191;-66
2023/05/06 09:34:51;;;;;;;1.90;1.80;;;19.00;58.00;;;;;;5116655;28;20177;-67
2023/05/06 09:37:16;;;;;;;2.00;1.90;;;19.10;58.10;;;;;;5116181;28;20674;-65
2023/05/06 09:39:42;;;;;;;2.22;1.92;;;19.10;58.10;;;;;;5115575;28;20505;-66
2023/05/06 09:42:07;;;;;;;1.65;1.55;;;19.10;58.20;;;;;;5115901;28;20204;-65
2023/05/06 09:44:33;;;;;;;2.17;1.77;;;19.10;58.20;;;;;;5115754;28;20173;-65
2023/05/06 09:46:58;;;;;;;1.90;1.80;;;19.10;58.00;;;;;;5115027;28;20214;-64
2023/05/06 09:49:24;;;;;;;2.13;1.98;;;19.20;58.00;;;;;;5115339;28;20173;-64
2023/05/06 09:51:50;;;;;;;1.70;1.60;;;19.20;58.10;;;;;;5097336;28;20177;-64
2023/05/06 09:54:16;;;;;;;2.35;2.15;;;19.20;58.10;;;;;;5097852;28;20173;-65
2023/05/06 09:56:42;;;;;;;2.45;2.08;;;19.20;58.10;;;;;;5114993;28;20566;-65
2023/05/06 09:59:08;;;;;;;1.98;1.80;;;19.20;58.10;;;;;;5113961;28;20165;-66
2023/05/06 10:01:34;;;;;;;1.90;1.80;;;19.20;58.80;;;;;;5116017;28;20258;-65
2023/05/06 10:04:00;;;;;;;2.45;2.25;;;19.20;58.00;;;;;;5098198;28;20238;-66
2023/05/06 10:06:26;;;;;;;2.30;1.90;;;19.30;58.10;;;;;;5113901;28;20615;-66
2023/05/06 10:08:52;;;;;;;2.03;1.92;;;19.30;58.00;;;;;;5114707;28;20189;-64
2023/05/06 10:11:19;;;;;;;2.72;1.95;;;19.30;57.90;;;;;;5097311;28;20208;-64
2023/05/06 10:13:45;;;;;;;1.73;1.63;;;19.40;57.90;;;;;;5097137;28;20173;-64
2023/05/06 10:16:11;;;;;;;1.98;1.85;;;19.40;57.80;;;;;;5114169;28;20643;-64
2023/05/06 10:18:37;;;;;;;1.90;1.77;;;19.40;57.80;;;;;;5114464;28;20169;-65
2023/05/06 10:21:03;;;;;;;2.05;1.85;;;19.40;57.90;;;;;;5113644;28;20232;-64
2023/05/06 10:23:40;;;;;;;1.95;1.85;;;19.50;58.00;;;;;;5097226;28;20534;-64
2023/05/06 10:26:06;;;;;;;1.90;1.80;;;19.40;57.90;;;;;;5097846;28;20169;-64
2023/05/06 10:28:35;;;;;;;2.22;1.92;;;19.40;58.00;;;;;;5113513;28;20177;-65
2023/05/06 10:31:01;;;;;;;2.08;1.88;;;19.40;58.10;;;;;;5114401;28;20229;-65
2023/05/06 10:33:26;;;;;;;1.65;1.52;;;19.40;58.10;;;;;;5096881;28;20211;-66
2023/05/06 10:36:14;;;;;;;2.28;1.73;;;19.50;58.10;;;;;;5113448;28;20169;-66
2023/05/06 10:38:44;;;;;;;2.20;2.00;;;19.40;58.10;;;;;;5105275;28;20211;-66
2023/05/06 10:41:10;;;;;;;2.13;1.98;;;19.40;58.10;;;;;;5112993;28;20207;-65
2023/05/06 10:43:40;;;;;;;2.78;1.70;;;19.50;58.20;;;;;;5097183;28;20173;-65
2023/05/06 10:46:12;;;;;;;1.63;1.52;;;19.50;58.10;;;;;;5115142;28;20176;-65
2023/05/06 10:48:38;;;;;;;1.75;1.65;;;19.60;58.10;;;;;;5114478;28;20327;-65
2023/05/06 10:51:16;;;;;;;1.90;1.60;;;19.60;58.00;;;;;;5115242;28;20177;-64
2023/05/06 10:54:01;;;;;;;1.73;1.63;;;19.70;58.40;;;;;;5114930;28;20177;-65
2023/05/06 10:56:28;;;;;;;1.92;1.83;;;19.70;57.90;;;;;;5114018;28;20256;-65
2023/05/06 10:58:55;;;;;;;1.88;1.77;;;19.70;57.90;;;;;;5114969;28;20548;-66
2023/05/06 11:01:22;;;;;;;2.90;2.03;;;19.70;57.90;;;;;;5113373;28;20255;-66
2023/05/06 11:03:49;;;;;;;1.67;1.58;;;19.60;58.00;;;;;;5112872;28;20176;-66
2023/05/06 11:06:31;;;;;;;1.70;1.60;;;19.50;58.00;;;;;;5114342;28;20635;-65
2023/05/06 11:08:57;;;;;;;1.75;1.65;;;19.60;58.20;;;;;;5114127;28;20279;-65
2023/05/06 11:11:45;;;;;;;1.90;1.80;;;19.60;58.20;;;;;;5113316;28;20627;-65
2023/05/06 11:14:12;;;;;;;1.75;1.65;;;19.60;58.30;;;;;;5114380;28;20256;-65
2023/05/06 11:16:50;;;;;;;2.25;2.05;;;19.60;58.40;;;;;;5113680;28;20180;-65
2023/05/06 11:19:29;;;;;;;1.83;1.73;;;19.60;58.30;;;;;;5114298;28;20225;-64
2023/05/06 11:21:58;;;;;;;1.80;1.70;;;19.60;58.30;;;;;;5114152;28;20265;-65
2023/05/06 11:24:28;;;;;;;1.92;1.73;;;19.50;58.30;;;;;;5113234;28;20176;-65
2023/05/06 11:26:56;;;;;;;1.50;1.40;;;19.60;58.30;;;;;;5114199;28;20181;-65
2023/05/06 11:29:21;;;;;;;1.80;1.70;;;19.70;58.20;;;;;;5113878;28;20373;-66
2023/05/06 11:31:47;;;;;;;2.60;1.30;;;19.70;58.10;;;;;;5113375;28;20280;-66
2023/05/06 11:34:26;;;;;;;1.52;1.33;;;19.70;58.00;;;;;;5113964;28;20196;-67
2023/05/06 11:37:06;;;;;;;2.33;1.42;;;19.80;58.10;;;;;;5114255;28;20211;-66
2023/05/06 11:39:33;;;;;;;1.73;1.60;;;19.80;58.00;;;;;;5114085;28;20169;-66
2023/05/06 11:42:05;;;;;;;1.65;1.55;;;19.80;58.00;;;;;;5113861;28;20223;-66
2023/05/06 11:44:33;;;;;;;1.90;1.63;;;19.80;58.00;;;;;;5113422;28;20181;-66
2023/05/06 11:47:00;;;;;;;1.75;1.65;;;19.80;58.00;;;;;;5114018;28;20177;-65
2023/05/06 11:49:26;;;;;;;2.15;1.95;;;19.80;58.10;;;;;;5113541;28;20184;-65
2023/05/06 11:51:52;;;;;;;1.77;1.67;;;19.80;58.10;;;;;;5113108;28;20185;-65
2023/05/06 11:54:21;;;;;;;1.60;1.50;;;19.80;58.20;;;;;;5113390;28;20177;-66
2023/05/06 11:56:51;;;;;;;1.67;1.58;;;19.80;58.20;;;;;;5113944;28;20185;-65
2023/05/06 11:59:17;;;;;;;1.92;1.60;;;19.80;58.20;;;;;;5112790;28;20174;-67
2023/05/06 12:01:44;;;;;;;2.63;1.85;;;19.80;58.20;;;;;;5113857;28;20209;-66
2023/05/06 12:04:10;;;;;;;2.22;2.03;;;19.70;58.20;;;;;;5113377;28;20545;-66
2023/05/06 12:06:36;;;;;;;2.15;1.90;;;19.70;58.20;;;;;;5112890;28;20183;-65
2023/05/06 12:09:03;;;;;;;1.60;1.50;;;19.80;58.20;;;;;;5113838;28;20169;-65
2023/05/06 12:11:28;;;;;;;1.90;1.80;;;19.90;58.10;;;;;;5111627;28;20177;-65
2023/05/06 12:13:53;;;;;;;1.73;1.50;;;19.90;58.00;;;;;;5112720;28;20226;-64
2023/05/06 12:16:19;;;;;;;2.58;1.63;;;19.90;58.00;;;;;;5113290;28;20222;-65
2023/05/06 12:18:44;;;;;;;1.65;1.55;;;19.90;57.90;;;;;;5095329;28;20168;-64
2023/05/06 12:21:10;;;;;;;1.83;1.73;;;19.90;57.80;;;;;;5093988;28;20305;-65
2023/05/06 12:23:41;;;;;;;1.83;1.40;;;19.80;58.00;;;;;;5113519;28;20284;-65
2023/05/06 12:26:08;;;;;;;1.55;1.45;;;19.80;58.10;;;;;;5095668;28;20230;-66
2023/05/06 12:28:34;;;;;;;1.48;1.38;;;19.80;58.30;;;;;;5113192;28;20173;-66
2023/05/06 12:31:00;;;;;;;1.67;1.48;;;19.80;58.30;;;;;;5113315;28;20204;-66
2023/05/06 12:33:26;;;;;;;1.70;1.60;;;19.70;58.20;;;;;;5110977;28;20708;-67
2023/05/06 12:35:53;;;;;;;1.85;1.52;;;19.70;58.20;;;;;;5113637;28;20180;-67
2023/05/06 12:38:19;;;;;;;1.60;1.50;;;19.70;58.20;;;;;;5111954;28;20169;-67
2023/05/06 12:40:52;;;;;;;2.08;1.40;;;19.70;58.20;;;;;;5112607;28;20173;-66
2023/05/06 12:43:17;;;;;;;1.75;1.65;;;19.70;58.20;;;;;;5112974;28;20272;-66
2023/05/06 12:45:44;;;;;;;1.50;1.40;;;19.70;58.20;;;;;;5113239;28;20189;-66